Time;durP1;ratioP1;P1;durP2;ratioP2;P2;SDS_P1;SDS_P2;PMS_P1;PMS_P2;Temp;Humidity;BMP_temperature;BMP_pressure;BME280_temperature;BME280_humidity;BME280_pressure;Samples;Min_cycle;Max_cycle;Signal;HPM_P1;HPM_P2
2021/06/05 00:58:35;;;;;;;47.00;34.50;;;18.70;95.10;;;;;;5617794;23;20503;-90
2021/06/05 01:01:11;;;;;;;71.13;36.70;;;20.50;97.80;;;;;;5068673;23;20475;-89
2021/06/05 01:03:40;;;;;;;45.13;36.07;;;18.50;95.70;;;;;;5021220;28;20494;-89
2021/06/05 01:06:19;;;;;;;43.20;35.60;;;20.90;99.90;;;;;;5004044;28;20424;-89
2021/06/05 01:09:00;;;;;;;51.00;34.47;;;17.60;96.90;;;;;;5019675;28;20404;-90
2021/06/05 01:14:33;;;;;;;42.67;32.60;;;18.60;96.30;;;;;;5398565;23;20494;-88
2021/06/05 01:17:08;;;;;;;41.90;32.93;;;19.90;96.10;;;;;;5040568;28;20435;-90
2021/06/05 04:23:30;;;;;;;46.43;36.33;;;18.80;98.90;;;;;;6031000;23;20426;-87
2021/06/05 04:28:34;;;;;;;48.40;34.70;;;19.00;94.10;;;;;;5834343;23;20475;-89
2021/06/05 04:31:09;;;;;;;41.33;32.60;;;23.00;97.20;;;;;;5020910;28;20416;-88
2021/06/05 04:36:19;;;;;;;43.00;33.70;;;19.10;99.90;;;;;;5698423;23;20717;-89
2021/06/05 04:38:46;;;;;;;48.10;35.53;;;22.30;96.10;;;;;;5040655;28;20411;-88
2021/06/05 04:43:48;;;;;;;47.60;36.80;;;19.00;92.90;;;;;;5620607;23;20459;-89
2021/06/05 04:46:15;;;;;;;55.47;37.80;;;24.40;97.70;;;;;;5040027;28;20423;-88
2021/06/05 05:02:04;;;;;;;49.53;37.10;;;18.90;92.50;;;;;;5638925;23;20513;-88
2021/06/05 05:04:30;;;;;;;54.23;40.97;;;22.10;97.10;;;;;;5508420;23;20566;-86
2021/06/05 05:12:07;;;;;;;56.77;40.80;;;18.90;93.50;;;;;;4982871;28;20477;-88
2021/06/05 05:14:37;;;;;;;48.53;36.57;;;20.40;96.20;;;;;;4981060;28;20418;-88
2021/06/05 05:17:03;;;;;;;50.77;38.23;;;21.70;95.40;;;;;;4981337;28;20517;-87
2021/06/05 05:19:29;;;;;;;52.27;38.90;;;20.80;95.50;;;;;;4981296;28;20426;-86
2021/06/05 05:21:56;;;;;;;59.27;41.20;;;;;;;;;;4980846;28;20414;-87
2021/06/05 05:26:57;;;;;;;52.20;37.63;;;19.10;92.50;;;;;;5012988;23;20480;-87
2021/06/05 05:29:25;;;;;;;58.10;39.53;;;;;;;;;;5000912;28;20416;-88
2021/06/05 05:34:38;;;;;;;47.13;34.33;;;19.50;99.90;;;;;;5148637;23;20527;-86
2021/06/05 05:45:34;;;;;;;44.57;34.07;;;19.70;91.10;;;;;;1468906;23;20803;-87
2021/06/05 05:50:48;;;;;;;42.97;33.17;;;19.80;90.40;;;;;;4999385;28;20477;-88
2021/06/05 05:53:14;;;;;;;44.57;31.90;;;19.80;90.40;;;;;;5194997;23;20495;-88
2021/06/05 05:55:41;;;;;;;37.50;31.00;;;21.00;91.80;;;;;;4981795;28;20421;-88
2021/06/05 05:58:14;;;;;;;41.73;31.07;;;19.60;92.20;;;;;;5015302;28;20429;-88
2021/06/05 06:00:44;;;;;;;40.90;31.30;;;23.30;93.60;;;;;;5000275;28;20802;-86
2021/06/05 06:05:56;;;;;;;38.63;30.40;;;19.70;90.70;;;;;;4961859;28;20483;-88
2021/06/05 06:08:27;;;;;;;37.90;27.43;;;23.30;94.10;;;;;;5213477;23;20527;-89
2021/06/05 06:10:55;;;;;;;37.43;30.10;;;20.40;93.30;;;;;;5018845;28;20950;-87
2021/06/05 06:13:25;;;;;;;34.27;27.50;;;21.90;92.90;;;;;;5017647;28;20411;-88
2021/06/05 06:15:51;;;;;;;36.00;27.80;;;22.90;93.70;;;;;;5017679;28;20442;-87
2021/06/05 06:18:17;;;;;;;35.63;28.23;;;25.00;97.90;;;;;;5001186;28;20424;-89
2021/06/05 06:20:47;;;;;;;29.57;26.07;;;19.70;89.70;;;;;;5015905;28;20197;-86
2021/06/05 06:23:24;;;;;;;35.13;27.77;;;23.50;93.80;;;;;;5018576;28;20212;-87
2021/06/05 06:25:53;;;;;;;31.77;26.50;;;19.00;90.80;;;;;;5016540;28;20415;-86
2021/06/05 06:28:27;;;;;;;34.30;29.13;;;19.90;88.20;;;;;;5213018;23;20539;-87
2021/06/05 06:30:57;;;;;;;33.23;27.20;;;21.30;91.50;;;;;;5035760;28;20491;-86
2021/06/05 06:33:26;;;;;;;35.10;28.90;;;25.40;94.60;;;;;;5037164;28;20511;-86
2021/06/05 06:38:35;;;;;;;32.97;27.10;;;19.90;90.10;;;;;;5245739;23;20496;-86
2021/06/05 06:46:27;;;;;;;32.50;26.13;;;20.10;89.70;;;;;;5109396;23;20463;-88
2021/06/05 06:48:55;;;;;;;31.87;27.47;;;23.40;92.00;;;;;;5032643;28;20431;-85
2021/06/05 06:54:06;;;;;;;38.70;29.67;;;20.10;87.80;;;;;;5190870;23;20529;-86
2021/06/05 06:56:36;;;;;;;35.90;28.33;;;17.80;88.80;;;;;;4961881;28;20495;-87
2021/06/05 06:59:04;;;;;;;34.67;26.40;;;23.50;92.60;;;;;;4996417;28;20417;-87
2021/06/05 07:04:12;;;;;;;36.90;30.80;;;20.30;88.30;;;;;;5200731;23;20479;-88
2021/06/05 07:06:48;;;;;;;39.57;30.00;;;23.10;94.80;;;;;;5036067;28;20467;-87
2021/06/05 07:09:16;;;;;;;35.73;30.33;;;20.70;88.70;;;;;;5036407;28;20430;-88
2021/06/05 07:11:42;;;;;;;41.50;33.30;;;24.00;93.30;;;;;;5030223;28;20523;-88
2021/06/05 07:14:08;;;;;;;37.70;31.33;;;21.80;93.30;;;;;;4981727;28;20531;-87
2021/06/05 07:16:37;;;;;;;36.70;29.10;;;23.40;93.50;;;;;;4997595;28;20937;-88
2021/06/05 07:19:06;;;;;;;37.17;30.20;;;20.20;87.60;;;;;;4994864;28;20185;-88
2021/06/05 07:21:32;;;;;;;35.77;27.40;;;20.50;87.40;;;;;;4984666;28;20439;-88
2021/06/05 07:23:58;;;;;;;36.00;28.00;;;;;;;;;;4997671;28;20482;-88
2021/06/05 07:26:27;;;;;;;35.37;29.03;;;20.30;85.80;;;;;;4997750;28;20264;-88
2021/06/05 07:29:01;;;;;;;37.00;27.60;;;22.70;89.20;;;;;;5000448;28;20419;-89
2021/06/05 07:31:29;;;;;;;34.07;28.30;;;22.10;89.10;;;;;;4989474;28;20427;-89
2021/06/05 07:34:00;;;;;;;32.33;28.80;;;23.00;91.00;;;;;;5003169;28;20856;-89
2021/06/05 07:36:42;;;;;;;34.97;28.33;;;20.40;85.80;;;;;;5005357;28;20420;-90
2021/06/05 07:39:12;;;;;;;35.00;26.77;;;20.30;84.70;;;;;;5002022;28;20503;-88
2021/06/05 07:41:38;;;;;;;40.90;31.97;;;;;;;;;;4988132;28;20415;-91
2021/06/05 07:44:05;;;;;;;35.90;31.20;;;20.30;85.50;;;;;;4997937;28;20532;-89
2021/06/05 07:49:39;;;;;;;35.80;30.97;;;20.20;98.80;;;;;;5097190;23;20475;31
2021/06/05 07:54:57;;;;;;;39.80;31.10;;;;;;;;;;5122638;23;20493;-93
2021/06/05 07:57:26;;;;;;;37.00;31.40;;;20.10;99.90;;;;;;4995390;28;20424;-89
2021/06/05 07:59:52;;;;;;;34.70;29.77;;;20.10;98.00;;;;;;4993661;28;20416;-92
2021/06/05 08:02:18;;;;;;;34.33;28.93;;;;;;;;;;4988643;28;20426;-92
2021/06/05 08:04:47;;;;;;;32.83;29.00;;;19.90;87.00;;;;;;4994596;28;20464;-90
2021/06/05 08:07:15;;;;;;;36.20;28.73;;;23.80;93.30;;;;;;4993827;28;20409;-93
2021/06/05 08:09:44;;;;;;;39.33;29.97;;;;;;;;;;4987534;28;20496;-94
2021/06/05 08:12:11;;;;;;;36.03;28.47;;;20.30;86.90;;;;;;4975642;28;20429;-93
2021/06/05 08:14:45;;;;;;;36.50;27.67;;;19.90;99.20;;;;;;4993012;28;20416;-93
2021/06/05 08:17:11;;;;;;;35.80;29.03;;;23.40;95.50;;;;;;5311614;23;20546;-88
2021/06/05 08:19:37;;;;;;;34.70;29.60;;;;;;;;;;5141762;23;20546;-90
2021/06/05 08:22:20;;;;;;;33.67;28.90;;;19.80;87.20;;;;;;5028211;28;20223;-92
2021/06/05 08:27:47;;;;;;;34.40;28.87;;;20.10;98.40;;;;;;5193908;23;20465;-91
2021/06/05 08:30:19;;;;;;;30.70;27.20;;;22.90;90.80;;;;;;5009882;28;20459;-89
2021/06/05 08:32:45;;;;;;;33.50;26.93;;;;;;;;;;5017983;28;20404;-88
2021/06/05 08:35:11;;;;;;;30.07;26.43;;;20.30;85.80;;;;;;4999556;28;20424;-91
2021/06/05 08:37:37;;;;;;;31.77;28.40;;;21.30;91.00;;;;;;5016817;28;20466;-90
2021/06/05 08:40:06;;;;;;;37.10;31.27;;;20.60;84.50;;;;;;5014604;28;20434;-89
2021/06/05 08:42:42;;;;;;;33.87;30.03;;;20.70;83.60;;;;;;4998291;28;20784;-90
2021/06/05 08:45:09;;;;;;;33.57;29.77;;;23.40;90.00;;;;;;5017063;28;20412;-87
2021/06/05 08:47:37;;;;;;;35.50;30.07;;;20.70;82.30;;;;;;5095425;23;20867;-87
2021/06/05 08:50:20;;;;;;;35.93;29.70;;;20.70;83.20;;;;;;5067911;23;20464;-88
2021/06/05 08:58:28;;;;;;;34.40;28.70;;;20.80;81.50;;;;;;5095605;23;20491;-88
2021/06/05 09:01:17;;;;;;;36.67;30.37;;;21.00;80.70;;;;;;5010922;28;20434;-92
2021/06/05 09:03:45;;;;;;;35.13;30.50;;;20.70;83.40;;;;;;5012565;28;20498;-90
2021/06/05 09:06:43;;;;;;;35.90;30.50;;;20.70;87.30;;;;;;5029056;28;20416;-86
2021/06/05 09:09:16;;;;;;;35.87;30.70;;;21.40;82.90;;;;;;5010158;28;20499;-91
2021/06/05 09:11:42;;;;;;;34.07;30.37;;;;;;;;;;4675588;28;9999994;-93
2021/06/05 09:14:11;;;;;;;38.97;31.93;;;21.10;81.30;;;;;;4990299;28;20315;-92
2021/06/05 09:16:49;;;;;;;42.80;33.47;;;23.90;92.90;;;;;;4987889;28;20631;-91
2021/06/05 09:19:37;;;;;;;40.63;35.33;;;21.10;81.20;;;;;;4986618;28;20424;-89
2021/06/05 09:22:07;;;;;;;38.67;33.30;;;24.10;87.10;;;;;;4987870;28;20856;-88
2021/06/05 09:24:35;;;;;;;44.80;36.00;;;24.20;87.60;;;;;;4991351;28;20486;-92
2021/06/05 09:27:24;;;;;;;42.63;36.87;;;24.50;88.90;;;;;;5014025;28;20496;-91
2021/06/05 09:30:15;;;;;;;44.83;37.97;;;21.20;79.80;;;;;;5010424;28;20417;-89
2021/06/05 09:32:47;;;;;;;46.90;37.00;;;23.00;83.00;;;;;;5011405;28;20413;-92
2021/06/05 09:35:26;;;;;;;41.47;35.10;;;22.00;88.10;;;;;;5004409;28;20582;-91
2021/06/05 09:38:34;;;;;;;37.30;31.30;;;21.60;96.30;;;;;;5029337;28;20411;-92
2021/06/05 09:41:23;;;;;;;35.77;31.73;;;24.70;81.50;;;;;;4961703;28;20524;-91
2021/06/05 09:43:52;;;;;;;33.13;27.90;;;23.40;79.90;;;;;;5018070;28;20463;-90
2021/06/05 09:46:36;;;;;;;35.73;29.50;;;23.70;85.50;;;;;;5017025;28;20463;-91
2021/06/05 09:49:45;;;;;;;34.73;30.93;;;26.60;86.80;;;;;;5001100;28;20407;-90
2021/06/05 09:52:14;;;;;;;40.67;31.50;;;21.30;78.00;;;;;;5053236;23;20549;-90
2021/06/05 09:54:46;;;;;;;38.63;31.77;;;21.70;76.40;;;;;;4972101;28;20416;-89
2021/06/05 09:57:30;;;;;;;33.73;30.07;;;21.70;77.00;;;;;;4992325;28;20412;-90
2021/06/05 10:00:07;;;;;;;32.70;28.17;;;22.60;76.90;;;;;;5010606;28;20584;-88
2021/06/05 10:02:34;;;;;;;39.53;31.60;;;22.90;76.50;;;;;;4992663;28;20424;-90
2021/06/05 10:05:24;;;;;;;31.80;28.17;;;24.70;78.80;;;;;;4996052;28;20408;-89
2021/06/05 10:07:58;;;;;;;33.77;30.07;;;22.10;71.80;;;;;;5000208;28;20444;-90
2021/06/05 10:10:41;;;;;;;30.63;27.40;;;22.00;70.40;;;;;;4627255;28;10000532;-90
2021/06/05 10:13:22;;;;;;;33.10;28.90;;;23.40;70.40;;;;;;4971742;29;20414;-90
2021/06/05 10:16:06;;;;;;;35.60;29.87;;;26.00;73.60;;;;;;4971506;29;20430;-91
2021/06/05 10:18:38;;;;;;;40.23;35.80;;;24.20;67.60;;;;;;4949677;29;20482;-91
2021/06/05 10:21:42;;;;;;;36.33;31.90;;;24.50;67.70;;;;;;4968516;29;20493;-91
2021/06/05 10:24:36;;;;;;;38.80;32.83;;;27.20;72.00;;;;;;4946100;28;20458;-91
2021/06/05 10:27:30;;;;;;;37.80;31.33;;;23.70;64.20;;;;;;4958050;29;20426;-89
2021/06/05 10:30:08;;;;;;;41.80;34.33;;;23.80;64.30;;;;;;4956803;28;20434;-90
2021/06/05 10:32:40;;;;;;;43.70;34.33;;;25.10;70.70;;;;;;5041686;23;20567;-90
2021/06/05 10:35:17;;;;;;;41.07;34.87;;;24.40;66.20;;;;;;4988580;28;20891;-88
2021/06/05 10:37:56;;;;;;;40.47;33.23;;;24.40;62.80;;;;;;5012924;28;20421;-92
2021/06/05 10:40:33;;;;;;;40.20;35.80;;;25.30;64.60;;;;;;4999386;28;20837;-92
2021/06/05 10:43:15;;;;;;;36.03;32.13;;;28.00;65.10;;;;;;4998643;28;20502;-89
2021/06/05 10:45:47;;;;;;;35.47;31.77;;;26.00;63.90;;;;;;5000885;28;20436;-89
2021/06/05 10:48:42;;;;;;;36.83;32.90;;;28.10;68.20;;;;;;5343830;23;20563;-92
2021/06/05 10:51:19;;;;;;;34.40;30.87;;;29.20;54.90;;;;;;5008473;28;20436;-88
2021/06/05 10:53:54;;;;;;;30.77;27.70;;;29.40;51.30;;;;;;4996245;28;20444;-86
2021/06/05 10:56:44;;;;;;;36.57;33.07;;;30.10;49.20;;;;;;4996740;28;20416;-88
2021/06/05 10:59:36;;;;;;;29.73;26.80;;;31.00;48.70;;;;;;5000571;28;20420;-89
2021/06/05 11:02:02;;;;;;;31.27;28.50;;;32.20;45.50;;;;;;4999585;28;20436;-87
2021/06/05 11:04:37;;;;;;;29.83;26.90;;;31.50;45.80;;;;;;5007538;28;20487;-87
2021/06/05 11:07:02;;;;;;;31.93;28.80;;;30.10;45.40;;;;;;5014019;28;20276;-87
2021/06/05 11:09:31;;;;;;;33.20;29.73;;;31.60;48.10;;;;;;5010630;28;20445;-90
2021/06/05 11:12:04;;;;;;;33.00;29.60;;;28.80;49.40;;;;;;4999683;28;20232;-88
2021/06/05 11:14:36;;;;;;;31.47;28.27;;;28.20;50.90;;;;;;4997434;28;20431;-87
2021/06/05 11:17:03;;;;;;;35.83;31.80;;;29.10;52.40;;;;;;4996046;28;20463;-88
2021/06/05 11:19:35;;;;;;;38.63;34.67;;;27.20;52.00;;;;;;4995661;28;20423;-88
2021/06/05 11:22:06;;;;;;;35.23;31.43;;;27.00;54.20;;;;;;4993809;28;20570;-86
2021/06/05 11:24:32;;;;;;;35.47;31.57;;;26.60;54.70;;;;;;4980428;28;20477;-87
2021/06/05 11:27:00;;;;;;;37.57;33.47;;;25.80;54.90;;;;;;4988019;28;20480;-86
2021/06/05 11:29:29;;;;;;;35.67;31.70;;;27.30;56.20;;;;;;4993063;28;20479;-88
2021/06/05 11:32:17;;;;;;;35.13;31.33;;;25.10;55.70;;;;;;4995209;28;20432;-87
2021/06/05 11:34:42;;;;;;;36.17;32.63;;;26.20;56.30;;;;;;4994745;28;20408;-90
2021/06/05 11:37:14;;;;;;;39.00;34.77;;;27.60;57.50;;;;;;4995645;28;20409;-88
2021/06/05 11:39:46;;;;;;;40.63;36.30;;;26.30;56.90;;;;;;4995617;28;20180;-89
2021/06/05 11:42:32;;;;;;;34.13;30.60;;;25.50;56.80;;;;;;4994440;28;20601;-87
2021/06/05 11:44:57;;;;;;;36.43;32.50;;;25.10;55.90;;;;;;4989345;28;20809;-87
2021/06/05 11:47:23;;;;;;;36.30;32.50;;;25.30;55.10;;;;;;4998824;28;20416;-88
2021/06/05 11:49:53;;;;;;;40.10;35.97;;;26.90;54.80;;;;;;5000266;28;20233;-90
2021/06/05 11:52:34;;;;;;;38.53;34.53;;;27.10;54.40;;;;;;5007408;28;20177;-91
2021/06/05 11:55:38;;;;;;;38.00;33.80;;;27.50;55.80;;;;;;5010639;28;20422;-91
2021/06/05 11:58:19;;;;;;;40.13;35.93;;;26.80;57.30;;;;;;5017056;28;20440;-91
2021/06/05 12:03:22;;;;;;;57.43;48.13;;;;;;;;;;5067546;23;20478;-94
2021/06/05 12:06:17;;;;;;;38.97;34.03;;;24.60;59.20;;;;;;4971488;29;20403;-90
2021/06/05 12:08:46;;;;;;;60.63;47.60;;;25.40;61.90;;;;;;4929277;29;20427;-92
2021/06/05 12:14:14;;;;;;;67.80;47.90;;;24.10;62.00;;;;;;5137978;23;20472;-92
2021/06/05 12:16:49;;;;;;;50.53;41.50;;;24.30;63.20;;;;;;4956729;29;20781;-90
2021/06/05 12:19:15;;;;;;;59.10;46.03;;;25.30;66.20;;;;;;5112570;23;20523;-91
2021/06/05 12:21:43;;;;;;;46.30;40.00;;;23.80;70.40;;;;;;5007887;28;20420;-93
2021/06/05 12:24:30;;;;;;;57.53;44.07;;;24.10;70.70;;;;;;5006685;28;20464;-90
2021/06/05 12:27:05;;;;;;;48.77;43.10;;;25.30;71.50;;;;;;5006329;28;20412;-90
2021/06/05 12:29:38;;;;;;;77.17;57.17;;;25.70;73.90;;;;;;5008323;28;20440;-92
2021/06/05 12:32:14;;;;;;;55.40;47.47;;;23.90;72.70;;;;;;5008291;28;20440;-91
2021/06/05 12:34:43;;;;;;;64.87;51.97;;;;;;;;;;5008453;28;20417;-92
2021/06/05 12:37:28;;;;;;;60.50;49.03;;;22.40;90.40;;;;;;5012413;28;20401;-91
2021/06/05 12:40:00;;;;;;;62.67;54.40;;;25.30;76.90;;;;;;5011529;28;20484;-85
2021/06/05 12:42:26;;;;;;;63.40;52.60;;;;;;;;;;4998817;28;20424;-85
2021/06/05 12:44:56;;;;;;;72.63;59.73;;;22.10;74.80;;;;;;4999399;28;20550;-84
2021/06/05 12:47:29;;;;;;;64.70;54.60;;;21.60;76.10;;;;;;4995455;28;20423;-84
2021/06/05 12:49:55;;;;;;;75.87;58.67;;;21.60;76.80;;;;;;4994527;28;20825;-85
2021/06/05 13:06:31;;;;;;;60.33;46.93;;;21.40;95.90;;;;;;3046524;23;20537;-90
2021/06/05 13:14:22;;;;;;;44.20;38.33;;;21.80;95.60;;;;;;5372695;23;20487;-91
2021/06/05 13:28:08;;;;;;;45.33;40.40;;;21.90;76.40;;;;;;5073823;23;20482;-87
2021/06/05 13:30:52;;;;;;;48.37;41.93;;;22.90;87.20;;;;;;5034579;28;20491;-87
2021/06/05 13:33:58;;;;;;;51.77;42.73;;;22.00;93.90;;;;;;5036171;28;20431;-90
2021/06/05 13:39:27;;;;;;;52.43;45.00;;;22.00;76.10;;;;;;4303491;23;20470;-91
2021/06/05 13:47:45;;;;;;;48.60;41.87;;;22.80;92.80;;;;;;5518373;23;20490;-88
2021/06/05 13:50:17;;;;;;;54.90;43.80;;;21.50;68.40;;;;;;5009547;28;20427;-89
2021/06/05 13:52:43;;;;;;;52.80;43.23;;;25.80;78.20;;;;;;5010762;28;20428;-91
2021/06/05 13:55:25;;;;;;;60.00;47.40;;;24.60;80.10;;;;;;5009938;28;20412;-89
2021/06/05 13:57:57;;;;;;;62.63;48.87;;;22.00;73.90;;;;;;5008857;28;20435;-91
2021/06/05 14:00:28;;;;;;;54.67;46.20;;;22.00;77.30;;;;;;5021148;28;20411;-91
2021/06/05 14:03:00;;;;;;;59.60;46.40;;;21.80;73.10;;;;;;5013729;28;20431;-89
2021/06/05 14:05:26;;;;;;;65.27;48.30;;;;;;;;;;5028963;28;20452;-91
2021/06/05 14:07:54;;;;;;;63.40;47.27;;;;;;;;;;5029896;28;20404;-91
2021/06/05 14:10:33;;;;;;;66.83;49.17;;;21.90;71.80;;;;;;5028552;28;20412;-91
2021/06/05 14:13:03;;;;;;;67.17;50.30;;;22.70;77.70;;;;;;5010788;28;20861;-90
2021/06/05 14:15:40;;;;;;;60.03;46.87;;;21.50;73.40;;;;;;5026755;28;20439;-90
2021/06/05 14:18:08;;;;;;;61.30;48.73;;;23.30;76.90;;;;;;5003153;28;20678;-90
2021/06/05 14:20:55;;;;;;;63.43;48.23;;;22.40;79.00;;;;;;4997625;28;20428;-93
2021/06/05 14:23:27;;;;;;;59.90;46.67;;;21.20;77.00;;;;;;5006414;28;20802;-88
2021/06/05 14:25:53;;;;;;;68.00;48.87;;;;;;;;;;5016881;28;20419;-90
2021/06/05 14:28:24;;;;;;;61.20;46.43;;;21.00;79.90;;;;;;5035953;28;20836;-90
2021/06/05 14:30:54;;;;;;;66.63;50.13;;;20.90;80.30;;;;;;5037606;28;20400;-87
2021/06/05 14:33:23;;;;;;;77.77;51.50;;;20.70;80.70;;;;;;5017976;28;20474;-91
2021/06/05 14:35:50;;;;;;;85.70;55.80;;;20.80;84.10;;;;;;5012374;28;20977;-90
2021/06/05 14:38:18;;;;;;;100.20;62.17;;;20.40;87.20;;;;;;5018079;28;20416;-90
2021/06/05 14:40:45;;;;;;;106.80;63.00;;;19.50;87.10;;;;;;4972100;28;20433;-91
2021/06/05 14:43:13;;;;;;;98.07;58.50;;;20.30;86.60;;;;;;5009446;28;20472;-91
2021/06/05 14:45:45;;;;;;;95.63;62.63;;;20.10;90.50;;;;;;4956939;28;20484;-87
2021/06/05 14:48:12;;;;;;;79.83;55.70;;;20.00;90.10;;;;;;4991092;28;20452;-90
2021/06/05 14:50:42;;;;;;;68.07;50.60;;;20.10;90.10;;;;;;4991016;28;20413;-88
2021/06/05 14:53:10;;;;;;;58.00;46.50;;;20.30;89.10;;;;;;4994826;28;20447;-89
2021/06/05 14:55:37;;;;;;;60.10;44.70;;;20.30;89.30;;;;;;5012170;28;20408;-89
2021/06/05 14:58:06;;;;;;;55.50;41.03;;;20.60;86.00;;;;;;4996356;28;20400;-88
2021/06/05 15:00:33;;;;;;;52.73;43.30;;;20.60;85.90;;;;;;5008430;28;20922;-90
2021/06/05 15:03:02;;;;;;;56.10;45.60;;;;;;;;;;4974658;28;20435;-89
2021/06/05 15:05:54;;;;;;;56.77;43.80;;;20.50;96.60;;;;;;5456788;23;20526;-92
2021/06/05 15:11:28;;;;;;;61.87;47.10;;;20.20;99.40;;;;;;4999195;28;20500;-89
2021/06/05 15:14:05;;;;;;;69.37;49.70;;;20.20;85.40;;;;;;4976739;28;20421;-92
2021/06/05 15:16:34;;;;;;;75.00;48.70;;;;;;;;;;4995588;28;20493;-93
2021/06/05 15:19:06;;;;;;;82.50;52.47;;;19.70;87.90;;;;;;4977733;28;20434;-90
2021/06/05 15:21:37;;;;;;;81.53;54.03;;;19.40;99.90;;;;;;5326227;23;20763;-88
2021/06/05 15:24:09;;;;;;;77.37;52.50;;;19.50;92.00;;;;;;5033873;28;20482;-91
2021/06/05 15:26:35;;;;;;;82.53;54.07;;;19.30;90.50;;;;;;5017678;28;20435;-91
2021/06/05 15:34:13;;;;;;;83.17;51.57;;;19.30;89.50;;;;;;5097270;23;20502;-90
2021/06/05 15:36:40;;;;;;;76.77;47.90;;;19.20;99.90;;;;;;5292023;23;20479;-90
2021/06/05 15:44:29;;;;;;;82.10;50.30;;;19.30;99.90;;;;;;5332911;23;20479;-86
2021/06/05 15:46:59;;;;;;;70.90;47.63;;;;;;;;;;5023687;28;20430;-87
2021/06/05 15:49:32;;;;;;;71.53;47.57;;;19.50;99.90;;;;;;5209288;23;20476;-92
2021/06/05 15:52:01;;;;;;;73.07;49.20;;;19.50;87.50;;;;;;5199742;23;20506;-90
2021/06/05 15:54:26;;;;;;;71.90;48.03;;;19.60;87.50;;;;;;5015237;28;20447;-92
2021/06/05 15:56:55;;;;;;;65.30;47.37;;;;;;;;;;4998800;28;20496;-92
2021/06/05 15:59:21;;;;;;;60.80;45.20;;;;;;;;;;5014511;28;20185;-90
2021/06/05 16:02:03;;;;;;;63.40;46.60;;;19.80;86.60;;;;;;5015411;28;20436;-90
2021/06/05 16:04:33;;;;;;;65.93;47.10;;;;;;;;;;4660002;28;9999711;-92
2021/06/05 16:07:04;;;;;;;66.30;47.13;;;19.90;85.60;;;;;;4995060;28;20170;-91
2021/06/05 16:09:33;;;;;;;73.20;48.20;;;19.90;88.20;;;;;;4979630;28;20402;-89
2021/06/05 16:12:13;;;;;;;67.10;46.67;;;19.90;85.90;;;;;;4993914;28;20417;-93
2021/06/05 16:14:40;;;;;;;70.83;49.07;;;19.90;85.60;;;;;;4990353;28;20440;-87
2021/06/05 16:17:06;;;;;;;61.20;47.07;;;;;;;;;;4993507;28;20457;-89
2021/06/05 16:19:33;;;;;;;71.80;49.20;;;19.80;99.90;;;;;;5288259;23;20483;-91
2021/06/05 16:21:59;;;;;;;70.17;49.10;;;;;;;;;;5016828;28;20443;-92
2021/06/05 16:28:04;;;;;;;59.70;48.73;;;24.90;91.40;;;;;;5031384;28;20405;-89
2021/06/05 16:30:35;;;;;;;59.20;46.10;;;19.90;83.90;;;;;;5036332;28;20414;-88
2021/06/05 16:36:24;;;;;;;57.30;47.80;;;23.80;89.20;;;;;;5037093;28;20411;-90
2021/06/05 16:38:50;;;;;;;58.13;47.83;;;;;;;;;;5029193;28;20407;-89
2021/06/05 16:41:15;;;;;;;54.10;46.27;;;20.20;81.40;;;;;;5023138;28;20404;-88
2021/06/05 16:43:44;;;;;;;54.63;47.17;;;21.10;84.60;;;;;;5031716;28;20463;-88
2021/06/05 16:52:55;;;;;;;52.93;43.60;;;20.50;81.30;;;;;;5018769;28;20429;-88
2021/06/05 16:55:21;;;;;;;54.63;44.17;;;20.40;81.00;;;;;;4999416;28;20505;-88
2021/06/05 16:57:47;;;;;;;56.67;46.27;;;20.40;81.40;;;;;;4999162;28;20415;-87
2021/06/05 17:03:34;;;;;;;60.73;46.63;;;20.40;81.20;;;;;;5016876;28;20288;-88
2021/06/05 17:06:00;;;;;;;59.57;47.67;;;20.80;85.40;;;;;;5000741;28;20446;-88
2021/06/05 17:08:25;;;;;;;54.47;47.10;;;20.20;82.50;;;;;;5000230;28;20625;-89
2021/06/05 17:10:51;;;;;;;65.90;50.17;;;19.70;82.20;;;;;;5016107;28;20377;-89
2021/06/05 17:13:20;;;;;;;61.07;48.07;;;20.50;84.60;;;;;;5016863;28;20647;-89
2021/06/05 17:15:47;;;;;;;56.27;48.40;;;19.10;82.80;;;;;;5017866;28;20407;-88
2021/06/05 17:18:17;;;;;;;63.87;50.97;;;20.00;83.90;;;;;;4998851;28;20427;-87
2021/06/05 17:27:52;;;;;;;54.90;46.00;;;20.20;83.90;;;;;;5010174;28;20415;-89
2021/06/05 17:33:43;;;;;;;51.93;46.27;;;20.10;82.80;;;;;;5012990;28;20184;-87
2021/06/05 17:36:09;;;;;;;57.03;47.17;;;19.20;81.90;;;;;;5001001;28;20417;-88
2021/06/05 17:38:35;;;;;;;53.60;46.67;;;20.20;82.90;;;;;;4997315;28;20482;-88
2021/06/05 17:41:02;;;;;;;56.23;45.70;;;19.70;82.10;;;;;;4978828;28;20472;-88
2021/06/05 17:46:49;;;;;;;49.33;44.50;;;20.30;81.90;;;;;;4997412;28;20431;-90
2021/06/05 17:49:15;;;;;;;47.63;42.80;;;19.70;79.60;;;;;;4998555;28;20408;-88
2021/06/05 17:51:41;;;;;;;49.47;44.50;;;19.80;79.60;;;;;;4981119;28;20189;-88
2021/06/05 17:54:12;;;;;;;49.07;44.20;;;20.10;78.90;;;;;;4996951;28;20165;-89
2021/06/05 18:00:00;;;;;;;46.47;41.67;;;19.80;77.90;;;;;;5000730;28;20411;-88
2021/06/05 18:02:26;;;;;;;49.77;44.87;;;19.40;77.40;;;;;;4998984;28;20511;-88
2021/06/05 18:05:11;;;;;;;48.57;43.57;;;19.60;77.80;;;;;;5006332;28;20220;-87
2021/06/05 18:07:36;;;;;;;47.80;42.97;;;20.20;78.90;;;;;;5003352;28;20434;-89
2021/06/05 18:10:05;;;;;;;49.07;44.17;;;21.70;81.20;;;;;;5001074;28;20522;-88
2021/06/05 18:12:31;;;;;;;47.77;43.30;;;20.00;79.20;;;;;;5001416;28;20210;-88
2021/06/05 18:14:56;;;;;;;50.53;45.53;;;22.10;82.80;;;;;;5008239;28;20436;-88
2021/06/05 18:17:22;;;;;;;50.13;45.20;;;21.00;82.10;;;;;;5015680;28;20219;-87
2021/06/05 18:23:10;;;;;;;46.30;41.57;;;19.90;79.20;;;;;;5016841;28;20199;-88
2021/06/05 18:25:38;;;;;;;46.33;41.73;;;19.30;78.80;;;;;;5016482;28;20463;-89
2021/06/05 18:28:07;;;;;;;46.80;41.90;;;20.80;80.10;;;;;;5017413;28;20416;-90
2021/06/05 18:30:42;;;;;;;45.23;40.60;;;19.70;78.70;;;;;;4997523;28;20463;-89
2021/06/05 18:33:12;;;;;;;47.30;42.70;;;19.70;79.10;;;;;;5001354;28;20430;-89
2021/06/05 18:35:41;;;;;;;45.63;41.10;;;19.40;79.40;;;;;;4990181;28;20761;-90
2021/06/05 18:38:08;;;;;;;46.60;41.97;;;19.40;79.10;;;;;;4997661;28;20412;-90
2021/06/05 18:40:35;;;;;;;45.43;40.70;;;19.30;78.50;;;;;;5006516;28;20424;-88
2021/06/05 18:43:01;;;;;;;38.80;35.07;;;22.30;84.40;;;;;;4996224;28;20478;-88
2021/06/05 18:45:32;;;;;;;35.07;31.67;;;19.80;78.70;;;;;;4996592;28;20427;-89
2021/06/05 18:47:58;;;;;;;35.93;32.30;;;19.70;80.00;;;;;;4996167;28;20609;-89
2021/06/05 18:50:29;;;;;;;33.93;30.50;;;19.60;79.00;;;;;;5014094;28;20510;-88
2021/06/05 18:52:55;;;;;;;34.17;30.87;;;22.00;83.10;;;;;;5002600;28;20516;-89
2021/06/05 18:55:27;;;;;;;34.53;30.93;;;20.80;83.10;;;;;;4976810;28;20807;-87
2021/06/05 18:57:53;;;;;;;31.60;28.40;;;;;;;;;;4994595;28;20439;-88
2021/06/05 19:00:24;;;;;;;32.83;29.57;;;19.50;79.00;;;;;;4995935;28;20439;-88
2021/06/05 19:02:51;;;;;;;31.20;28.10;;;19.60;79.90;;;;;;4993903;28;20401;-86
2021/06/05 19:05:19;;;;;;;29.80;26.70;;;19.50;78.90;;;;;;4990426;28;20430;-88
2021/06/05 19:07:46;;;;;;;31.77;28.37;;;17.80;77.40;;;;;;5015282;28;20498;-90
2021/06/05 19:10:13;;;;;;;31.67;28.57;;;21.60;83.60;;;;;;5014735;28;20443;-88
2021/06/05 19:12:39;;;;;;;31.97;28.63;;;19.60;78.90;;;;;;4997163;28;20516;-89
2021/06/05 19:15:06;;;;;;;32.20;28.90;;;19.60;77.10;;;;;;5015287;28;20443;-89
2021/06/05 19:17:33;;;;;;;33.60;29.80;;;19.50;78.30;;;;;;4996182;28;20442;-88
2021/06/05 19:19:59;;;;;;;33.00;29.77;;;19.60;76.70;;;;;;5014058;28;20450;-88
2021/06/05 19:22:25;;;;;;;32.13;28.77;;;20.70;80.30;;;;;;4997235;28;20425;-89
2021/06/05 19:24:50;;;;;;;36.17;31.47;;;21.70;80.10;;;;;;4977840;28;20512;-88
2021/06/05 19:27:17;;;;;;;37.43;32.37;;;22.40;86.00;;;;;;4979883;28;20432;-88
2021/06/05 19:29:44;;;;;;;35.10;31.30;;;20.10;78.90;;;;;;4976826;28;20623;-88
2021/06/05 19:32:10;;;;;;;34.77;31.03;;;22.80;85.50;;;;;;4994906;28;20435;-89
2021/06/05 19:34:37;;;;;;;36.77;31.63;;;20.70;78.90;;;;;;4995034;28;20423;-87
2021/06/05 19:37:05;;;;;;;34.07;30.27;;;22.10;81.80;;;;;;4977757;28;20432;-88
2021/06/05 19:39:32;;;;;;;33.73;30.07;;;19.70;80.80;;;;;;4982032;28;20434;-89
2021/06/05 19:42:01;;;;;;;36.80;32.80;;;22.10;83.10;;;;;;4978137;28;20889;-87
2021/06/05 19:44:38;;;;;;;37.40;33.10;;;21.20;80.10;;;;;;4994469;28;20901;-89
2021/06/05 19:47:06;;;;;;;36.07;32.20;;;22.30;81.30;;;;;;4977648;28;20416;-87
2021/06/05 19:49:32;;;;;;;41.00;36.43;;;18.80;77.50;;;;;;4977810;28;20421;-89
2021/06/05 19:52:00;;;;;;;38.23;33.50;;;22.10;81.20;;;;;;4996131;28;20404;-88